Time;durP1;ratioP1;P1;durP2;ratioP2;P2;SDS_P1;SDS_P2;PMS_P1;PMS_P2;Temp;Humidity;BMP_temperature;BMP_pressure;BME280_temperature;BME280_humidity;BME280_pressure;Samples;Min_cycle;Max_cycle;Signal;HPM_P1;HPM_P2
2023/01/12 00:00:34;;;;;;;;;;;7.40;99.90;;;;;;5054910;28;20328;-65
2023/01/12 00:03:00;;;;;;;;;;;7.40;99.90;;;;;;5053793;28;19944;-65
2023/01/12 00:05:25;;;;;;;;;;;7.30;99.90;;;;;;5053032;28;19921;-65
2023/01/12 00:07:51;;;;;;;;;;;7.40;99.90;;;;;;5054739;28;19951;-63
2023/01/12 00:10:16;;;;;;;;;;;7.50;99.90;;;;;;5053060;28;19928;-65
2023/01/12 00:12:42;;;;;;;;;;;7.50;99.90;;;;;;5054824;28;19963;-65
2023/01/12 00:15:08;;;;;;;;;;;7.60;99.90;;;;;;5053075;28;20293;-65
2023/01/12 00:17:33;;;;;;;;;;;7.60;99.90;;;;;;5053406;28;19921;-65
2023/01/12 00:19:59;;;;;;;;;;;7.60;99.90;;;;;;5054310;28;19925;-65
2023/01/12 00:22:24;;;;;;;;;;;7.50;99.90;;;;;;5052539;28;20015;-66
2023/01/12 00:24:51;;;;;;;;;;;7.60;99.90;;;;;;5053474;28;19990;-64
2023/01/12 00:27:20;;;;;;;;;;;7.60;99.90;;;;;;5052245;28;19978;-63
2023/01/12 00:29:46;;;;;;;;;;;7.60;99.90;;;;;;5053060;28;20370;-64
2023/01/12 00:32:13;;;;;;;;;;;7.70;99.90;;;;;;5036364;28;19979;-65
2023/01/12 00:34:39;;;;;;;;;;;7.70;99.90;;;;;;5036634;28;19975;-64
2023/01/12 00:37:05;;;;;;;;;;;7.70;99.90;;;;;;5053181;28;19921;-64
2023/01/12 00:39:30;;;;;;;;;;;7.80;99.90;;;;;;5052820;28;19994;-64
2023/01/12 00:47:32;;;;;;;;;;;7.80;99.90;;;;;;5036799;28;19944;-65
2023/01/12 00:49:57;;;;;;;;;;;7.80;99.90;;;;;;5035912;28;19921;-65
2023/01/12 00:52:23;;;;;;;;;;;7.80;99.90;;;;;;5053700;28;19982;-64
2023/01/12 00:54:49;;;;;;;;;;;7.80;99.90;;;;;;5053740;28;20492;-65
2023/01/12 00:57:16;;;;;;;;;;;7.70;99.90;;;;;;5053566;28;19921;-64
2023/01/12 00:59:43;;;;;;;;;;;7.70;99.90;;;;;;5053769;28;19925;-65
2023/01/12 01:02:09;;;;;;;;;;;7.70;99.90;;;;;;5053796;28;19928;-64
2023/01/12 01:04:34;;;;;;;;;;;7.70;99.90;;;;;;5053236;28;20358;-64
2023/01/12 01:07:01;;;;;;;;;;;7.70;99.90;;;;;;5053834;28;19920;-64
2023/01/12 01:09:26;;;;;;;;;;;7.70;99.90;;;;;;5053198;28;20274;-64
2023/01/12 01:11:52;;;;;;;;;;;7.70;99.90;;;;;;5053605;28;19921;-65
2023/01/12 01:14:17;;;;;;;;;;;7.70;99.90;;;;;;5053239;28;19928;-65
2023/01/12 01:16:43;;;;;;;;;;;7.70;99.90;;;;;;5053456;28;20368;-64
2023/01/12 01:19:09;;;;;;;;;;;7.80;99.90;;;;;;5052480;28;19921;-65
2023/01/12 01:21:34;;;;;;;;;;;7.80;99.90;;;;;;5052938;28;20504;-64
2023/01/12 01:24:00;;;;;;;;;;;7.80;99.90;;;;;;5053475;28;19967;-64
2023/01/12 01:26:26;;;;;;;;;;;7.80;99.90;;;;;;5052939;28;20310;-66
2023/01/12 01:28:51;;;;;;;;;;;7.90;99.90;;;;;;5053407;28;19998;-65
2023/01/12 01:31:18;;;;;;;;;;;7.90;99.90;;;;;;5051574;28;19927;-68
2023/01/12 01:33:44;;;;;;;;;;;7.90;99.90;;;;;;5052780;28;19920;-64
2023/01/12 01:36:10;;;;;;;;;;;7.90;99.90;;;;;;5052541;28;19920;-65
2023/01/12 01:38:36;;;;;;;;;;;7.80;99.90;;;;;;5052696;28;19925;-64
2023/01/12 01:41:02;;;;;;;;;;;7.80;99.90;;;;;;5035495;28;19924;-65
2023/01/12 01:43:28;;;;;;;;;;;7.90;99.90;;;;;;5051300;28;19920;-65
2023/01/12 01:46:00;;;;;;;;;;;7.80;99.90;;;;;;5051660;28;20366;-64
2023/01/12 01:48:28;;;;;;;;;;;7.80;99.90;;;;;;5051644;28;19921;-65
2023/01/12 01:50:56;;;;;;;;;;;7.90;99.90;;;;;;5052712;28;19991;-65
2023/01/12 01:53:23;;;;;;;;;;;7.90;99.90;;;;;;5051521;28;19925;-64
2023/01/12 01:55:51;;;;;;;;;;;7.90;99.90;;;;;;5052811;28;19920;-64
2023/01/12 01:58:22;;;;;;;;;;;7.90;99.90;;;;;;5034913;28;20003;-64
2023/01/12 02:00:48;;;;;;;;;;;7.80;99.90;;;;;;5052669;28;20392;-66
2023/01/12 02:03:15;;;;;;;;;;;7.80;99.90;;;;;;5051649;28;19921;-67
2023/01/12 02:05:42;;;;;;;;;;;7.80;99.90;;;;;;5050818;28;20514;-65
2023/01/12 02:08:23;;;;;;;;;;;7.80;99.90;;;;;;5051444;28;19921;-64
2023/01/12 02:10:50;;;;;;;;;;;7.80;99.90;;;;;;5050742;28;19969;-64
2023/01/12 02:18:56;;;;;;;;;;;7.80;99.90;;;;;;5051218;28;20282;-64
2023/01/12 02:21:25;;;;;;;;;;;7.80;99.90;;;;;;5051353;28;20027;-68
2023/01/12 02:24:14;;;;;;;;;;;7.80;99.90;;;;;;5052390;28;19967;-64
2023/01/12 02:26:53;;;;;;;;;;;7.80;99.90;;;;;;5040144;28;20388;-65
2023/01/12 02:29:19;;;;;;;;;;;7.80;99.90;;;;;;5050852;28;20363;-64
2023/01/12 02:32:03;;;;;;;;;;;7.90;99.90;;;;;;5050801;28;19970;-64
2023/01/12 02:34:34;;;;;;;;;;;7.90;99.90;;;;;;5052023;28;19924;-65
2023/01/12 02:37:18;;;;;;;;;;;7.90;99.90;;;;;;5051543;28;20003;-65
2023/01/12 02:39:58;;;;;;;;;;;7.90;99.90;;;;;;5052021;28;19928;-64
2023/01/12 02:42:42;;;;;;;;;;;8.00;99.90;;;;;;5052308;28;19927;-65
2023/01/12 02:45:15;;;;;;;;;;;8.00;99.90;;;;;;5051253;28;20404;-64
2023/01/12 02:47:53;;;;;;;;;;;8.00;99.90;;;;;;5054992;28;20362;-65
2023/01/12 02:50:22;;;;;;;;;;;8.00;99.90;;;;;;5056299;28;19927;-64
2023/01/12 02:52:53;;;;;;;;;;;8.00;99.90;;;;;;5055157;28;20338;-65
2023/01/12 02:55:19;;;;;;;;;;;8.00;99.90;;;;;;5055328;28;19921;-64
2023/01/12 02:57:45;;;;;;;;;;;8.00;99.90;;;;;;5054940;28;19928;-66
2023/01/12 03:00:13;;;;;;;;;;;8.00;99.90;;;;;;5055264;28;20278;-66
2023/01/12 03:02:39;;;;;;;;;;;8.00;99.90;;;;;;5055875;28;19925;-65
2023/01/12 03:05:05;;;;;;;;;;;8.00;99.90;;;;;;5054861;28;19928;-65
2023/01/12 03:07:31;;;;;;;;;;;7.90;99.90;;;;;;5054677;28;19921;-65
2023/01/12 03:10:17;;;;;;;;;;;8.00;99.90;;;;;;5038402;28;19920;-64
2023/01/12 03:12:43;;;;;;;;;;;8.00;99.90;;;;;;5053678;28;19927;-65
2023/01/12 03:15:10;;;;;;;;;;;8.00;99.90;;;;;;5055948;28;19994;-65
2023/01/12 03:17:36;;;;;;;;;;;8.00;99.90;;;;;;5054385;28;19925;-64
2023/01/12 03:20:25;;;;;;;;;;;8.10;99.90;;;;;;5038340;28;19925;-64
2023/01/12 03:22:52;;;;;;;;;;;8.00;99.90;;;;;;5043693;28;20019;-65
2023/01/12 03:25:19;;;;;;;;;;;8.10;99.90;;;;;;5055888;28;19920;-65
2023/01/12 03:27:47;;;;;;;;;;;8.10;99.90;;;;;;5037970;28;19968;-66
2023/01/12 03:30:23;;;;;;;;;;;8.10;99.90;;;;;;5055628;28;19972;-64
2023/01/12 03:32:49;;;;;;;;;;;8.10;99.90;;;;;;5054484;28;19927;-64
2023/01/12 03:35:16;;;;;;;;;;;8.10;99.90;;;;;;5054589;28;19967;-64
2023/01/12 03:37:49;;;;;;;;;;;8.10;99.90;;;;;;5055272;28;19932;-66
2023/01/12 03:40:21;;;;;;;;;;;8.10;99.90;;;;;;5054446;28;19999;-65
2023/01/12 03:42:49;;;;;;;;;;;8.10;99.90;;;;;;5055066;28;19921;-64
2023/01/12 03:45:18;;;;;;;;;;;8.20;99.90;;;;;;5054473;28;19974;-64
2023/01/12 03:47:44;;;;;;;;;;;8.10;99.90;;;;;;5054040;28;19921;-64
2023/01/12 03:50:15;;;;;;;;;;;8.10;99.90;;;;;;5054129;28;20290;-65
2023/01/12 03:52:42;;;;;;;;;;;8.20;99.90;;;;;;5053320;28;19973;-64
2023/01/12 03:55:10;;;;;;;;;;;8.20;99.90;;;;;;5053653;28;20051;-66
2023/01/12 03:57:37;;;;;;;;;;;8.20;99.90;;;;;;5052270;28;20298;-65
2023/01/12 04:00:04;;;;;;;;;;;8.20;99.90;;;;;;5036763;28;19921;-63
2023/01/12 04:02:29;;;;;;;;;;;8.30;99.90;;;;;;5053909;28;20286;-63
2023/01/12 04:04:55;;;;;;;;;;;8.20;99.90;;;;;;5053261;28;19921;-64
2023/01/12 04:07:22;;;;;;;;;;;8.30;99.90;;;;;;5054827;28;19924;-64
2023/01/12 04:09:48;;;;;;;;;;;8.20;99.90;;;;;;5053046;28;20320;-64
2023/01/12 04:12:13;;;;;;;;;;;8.20;99.90;;;;;;5054634;28;19921;-65
2023/01/12 04:14:43;;;;;;;;;;;8.30;99.90;;;;;;5053419;28;19925;-67
2023/01/12 04:17:10;;;;;;;;;;;8.40;99.90;;;;;;5053407;28;19927;-63
2023/01/12 04:19:35;;;;;;;;;;;8.30;99.90;;;;;;5053733;28;19979;-65
2023/01/12 04:24:45;;;;;;;;;;;8.30;99.90;;;;;;5054051;28;19964;-65
2023/01/12 04:27:11;;;;;;;;;;;8.30;99.90;;;;;;5053635;28;19971;-64
2023/01/12 04:29:37;;;;;;;;;;;8.40;99.90;;;;;;5053143;28;19974;-62
2023/01/12 04:32:03;;;;;;;;;;;8.40;99.90;;;;;;5052851;28;19925;-62
2023/01/12 04:34:28;;;;;;;;;;;8.30;99.90;;;;;;5054376;28;19982;-62
2023/01/12 04:36:54;;;;;;;;;;;8.30;99.90;;;;;;5053829;28;20358;-62
2023/01/12 04:39:19;;;;;;;;;;;8.30;99.90;;;;;;5054298;28;19928;-62
2023/01/12 04:41:45;;;;;;;;;;;8.30;99.90;;;;;;5036235;28;20315;-62
2023/01/12 04:44:10;;;;;;;;;;;8.40;99.90;;;;;;5054405;28;19920;-62
2023/01/12 04:46:36;;;;;;;;;;;8.30;99.90;;;;;;5054013;28;19921;-62
2023/01/12 04:49:02;;;;;;;;;;;8.30;99.90;;;;;;5053685;28;19916;-62
2023/01/12 04:51:27;;;;;;;;;;;8.30;99.90;;;;;;5054005;28;19927;-62
2023/01/12 04:53:53;;;;;;;;;;;8.30;99.90;;;;;;5053613;28;19921;-62
2023/01/12 04:56:19;;;;;;;;;;;8.30;99.90;;;;;;5053822;28;19921;-63
2023/01/12 04:58:44;;;;;;;;;;;8.30;99.90;;;;;;5053398;28;20381;-64
2023/01/12 05:01:11;;;;;;;;;;;8.30;99.90;;;;;;5053842;28;19928;-62
2023/01/12 05:03:37;;;;;;;;;;;8.30;99.90;;;;;;5053844;28;20373;-61
2023/01/12 05:06:03;;;;;;;;;;;8.20;99.90;;;;;;5052600;28;19928;-61
2023/01/12 05:11:12;;;;;;;;;;;8.30;99.90;;;;;;5053621;28;20289;-62
2023/01/12 05:13:38;;;;;;;;;;;8.30;99.90;;;;;;5053888;28;19921;-61
2023/01/12 05:16:07;;;;;;;;;;;8.30;99.90;;;;;;5052168;28;20354;-62
2023/01/12 05:18:33;;;;;;;;;;;8.30;99.90;;;;;;5053414;28;19929;-62
2023/01/12 05:20:59;;;;;;;;;;;8.30;99.90;;;;;;5053060;28;20208;-62
2023/01/12 05:23:24;;;;;;;;;;;8.30;99.90;;;;;;5053386;28;19928;-62
2023/01/12 05:25:50;;;;;;;;;;;8.30;99.90;;;;;;5052991;28;19982;-62
2023/01/12 05:28:15;;;;;;;;;;;8.30;99.90;;;;;;5052039;28;20287;-61
2023/01/12 05:30:41;;;;;;;;;;;8.30;99.90;;;;;;5051914;28;19925;-62
2023/01/12 05:33:10;;;;;;;;;;;8.30;99.90;;;;;;5052865;28;20057;-62
2023/01/12 05:35:36;;;;;;;;;;;8.30;99.90;;;;;;5052869;28;19925;-61
2023/01/12 05:38:02;;;;;;;;;;;8.30;99.90;;;;;;5052312;28;20378;-62
2023/01/12 05:40:27;;;;;;;;;;;8.30;99.90;;;;;;5051759;28;20058;-62
2023/01/12 05:45:37;;;;;;;;;;;8.30;99.90;;;;;;5051916;28;20019;-62
2023/01/12 05:48:03;;;;;;;;;;;8.30;99.90;;;;;;5051138;28;19921;-63
2023/01/12 05:50:28;;;;;;;;;;;8.20;99.90;;;;;;5051779;28;19921;-62
2023/01/12 05:52:55;;;;;;;;;;;8.20;99.90;;;;;;5052307;28;19928;-63
2023/01/12 05:55:20;;;;;;;;;;;8.20;99.90;;;;;;5051853;28;19921;-61
2023/01/12 05:57:46;;;;;;;;;;;8.20;99.90;;;;;;5052611;28;19928;-61
2023/01/12 06:00:11;;;;;;;;;;;8.20;99.90;;;;;;5052688;28;20023;-62
2023/01/12 06:02:37;;;;;;;;;;;8.10;99.90;;;;;;5051767;28;19920;-63
2023/01/12 06:05:07;;;;;;;;;;;8.20;99.90;;;;;;5051089;28;19968;-61
2023/01/12 06:07:32;;;;;;;;;;;8.20;99.90;;;;;;5052827;28;19921;-62
2023/01/12 06:09:58;;;;;;;;;;;8.20;99.90;;;;;;5051970;28;19939;-62
2023/01/12 06:15:08;;;;;;;;;;;8.20;99.90;;;;;;5052216;28;19920;-62
2023/01/12 06:17:34;;;;;;;;;;;8.30;99.90;;;;;;5051550;28;20327;-62
2023/01/12 06:19:59;;;;;;;;;;;8.20;99.90;;;;;;5051468;28;19921;-62
2023/01/12 06:22:26;;;;;;;;;;;8.20;99.90;;;;;;5052525;28;19920;-62
2023/01/12 06:24:52;;;;;;;;;;;8.30;99.90;;;;;;5052490;28;19978;-62
2023/01/12 06:27:18;;;;;;;;;;;8.30;99.90;;;;;;5050170;28;20387;-65
2023/01/12 06:29:43;;;;;;;;;;;8.20;99.90;;;;;;5052080;28;19943;-61
2023/01/12 06:32:09;;;;;;;;;;;8.20;99.90;;;;;;5051812;28;19920;-62
2023/01/12 06:34:35;;;;;;;;;;;8.30;99.90;;;;;;5052412;28;19925;-61
2023/01/12 06:37:01;;;;;;;;;;;8.30;99.90;;;;;;5051771;28;20037;-61
2023/01/12 06:39:27;;;;;;;;;;;8.40;99.90;;;;;;5051897;28;20445;-61
2023/01/12 06:44:37;;;;;;;;;;;8.40;99.90;;;;;;5051953;28;19927;-61
2023/01/12 06:47:03;;;;;;;;;;;8.40;99.90;;;;;;5051695;28;19920;-62
2023/01/12 06:49:29;;;;;;;;;;;8.40;99.90;;;;;;5051490;28;19920;-62
2023/01/12 06:51:54;;;;;;;;;;;8.50;99.90;;;;;;5052297;28;20031;-62
2023/01/12 06:54:20;;;;;;;;;;;8.50;99.90;;;;;;5050543;28;19932;-61
2023/01/12 06:56:45;;;;;;;;;;;8.50;99.90;;;;;;5052117;28;20011;-62
2023/01/12 06:59:11;;;;;;;;;;;8.50;99.90;;;;;;5051520;28;19924;-62
2023/01/12 07:01:38;;;;;;;;;;;8.60;99.90;;;;;;5051351;28;19921;-61
2023/01/12 07:04:03;;;;;;;;;;;8.60;99.90;;;;;;5051541;28;19928;-62
2023/01/12 07:06:29;;;;;;;;;;;8.70;99.90;;;;;;5051815;28;20278;-62
2023/01/12 07:08:55;;;;;;;;;;;8.70;99.90;;;;;;5051860;28;19997;-62
2023/01/12 07:11:20;;;;;;;;;;;8.70;99.90;;;;;;5051375;28;20591;-62
2023/01/12 07:13:46;;;;;;;;;;;8.80;99.90;;;;;;5050688;28;19927;-62
2023/01/12 07:16:12;;;;;;;;;;;8.90;99.90;;;;;;5051365;28;19921;-62
2023/01/12 07:18:37;;;;;;;;;;;8.90;99.90;;;;;;5051827;28;19921;-62
2023/01/12 07:21:04;;;;;;;;;;;8.90;99.90;;;;;;5051599;28;19921;-64
2023/01/12 07:23:30;;;;;;;;;;;9.00;99.90;;;;;;5051785;28;19920;-62
2023/01/12 07:25:56;;;;;;;;;;;9.10;99.90;;;;;;5050729;28;19928;-62
2023/01/12 07:28:22;;;;;;;;;;;9.10;99.90;;;;;;5051525;28;19924;-62
2023/01/12 07:30:48;;;;;;;;;;;9.10;99.90;;;;;;5051614;28;19943;-62
2023/01/12 07:33:13;;;;;;;;;;;9.20;99.90;;;;;;5054393;28;19920;-62
2023/01/12 07:35:40;;;;;;;;;;;9.20;99.90;;;;;;5055584;28;19927;-61
2023/01/12 07:38:05;;;;;;;;;;;9.30;99.90;;;;;;5055201;28;19968;-62
2023/01/12 07:40:31;;;;;;;;;;;9.30;99.90;;;;;;5055166;28;19975;-60
2023/01/12 07:43:00;;;;;;;;;;;9.30;99.90;;;;;;5055191;28;19999;-61
2023/01/12 07:45:26;;;;;;;;;;;9.40;99.90;;;;;;5054841;28;19981;-60
2023/01/12 07:47:52;;;;;;;;;;;9.40;99.90;;;;;;5054855;28;19924;-61
2023/01/12 07:50:18;;;;;;;;;;;9.50;99.90;;;;;;5053442;28;20389;-61
2023/01/12 07:52:44;;;;;;;;;;;9.50;99.90;;;;;;5054711;28;19920;-61
2023/01/12 07:55:09;;;;;;;;;;;9.50;99.90;;;;;;5054454;28;19981;-61
2023/01/12 07:57:36;;;;;;;;;;;9.50;99.90;;;;;;5055103;28;20294;-61
2023/01/12 08:00:05;;;;;;;;;;;9.60;99.90;;;;;;5054770;28;20337;-61
2023/01/12 08:02:31;;;;;;;;;;;9.60;99.90;;;;;;5036649;28;19924;-61
2023/01/12 08:04:57;;;;;;;;;;;9.60;99.90;;;;;;5054259;28;19927;-61
2023/01/12 08:07:22;;;;;;;;;;;9.70;99.90;;;;;;5054356;28;20019;-62
2023/01/12 08:09:48;;;;;;;;;;;9.80;99.90;;;;;;5054730;28;20022;-62
2023/01/12 08:12:14;;;;;;;;;;;9.80;99.90;;;;;;5054468;28;19982;-63
2023/01/12 08:14:40;;;;;;;;;;;9.80;99.90;;;;;;5020661;28;20029;-61
2023/01/12 08:17:08;;;;;;;;;;;9.80;99.90;;;;;;5053626;28;19927;-62
2023/01/12 08:19:37;;;;;;;;;;;9.90;99.90;;;;;;5052822;28;19927;-62
2023/01/12 08:22:05;;;;;;;;;;;9.90;99.90;;;;;;5054726;28;19921;-62
2023/01/12 08:24:34;;;;;;;;;;;9.90;99.90;;;;;;5053327;28;20491;-62
2023/01/12 08:27:01;;;;;;;;;;;10.00;99.90;;;;;;5054679;28;19924;-61
2023/01/12 08:29:31;;;;;;;;;;;10.10;99.90;;;;;;5054122;28;19943;-61
2023/01/12 08:31:59;;;;;;;;;;;10.10;99.90;;;;;;5054778;28;19967;-61
2023/01/12 08:34:25;;;;;;;;;;;10.00;99.90;;;;;;5053934;28;19921;-61
2023/01/12 08:36:51;;;;;;;;;;;10.10;99.90;;;;;;5036796;28;19931;-61
2023/01/12 08:39:17;;;;;;;;;;;10.20;99.90;;;;;;5053595;28;20278;-61
2023/01/12 08:41:43;;;;;;;;;;;10.20;99.90;;;;;;5054378;28;20075;-61
2023/01/12 08:44:09;;;;;;;;;;;10.20;99.90;;;;;;5052444;28;19921;-62
2023/01/12 08:46:37;;;;;;;;;;;10.10;99.90;;;;;;5052671;28;19928;-62
2023/01/12 08:49:06;;;;;;;;;;;10.20;99.90;;;;;;5054110;28;19927;-61
2023/01/12 08:51:32;;;;;;;;;;;10.20;99.90;;;;;;5053375;28;20374;-63
2023/01/12 08:53:57;;;;;;;;;;;10.20;99.90;;;;;;5052830;28;20063;-61
2023/01/12 08:56:23;;;;;;;;;;;10.30;99.90;;;;;;5052789;28;19944;-61
2023/01/12 08:58:49;;;;;;;;;;;10.30;99.90;;;;;;5053569;28;19920;-62
2023/01/12 09:01:15;;;;;;;;;;;10.30;99.90;;;;;;5053721;28;19920;-62
2023/01/12 09:03:43;;;;;;;;;;;10.30;99.90;;;;;;5052385;28;19931;-62
2023/01/12 09:06:09;;;;;;;;;;;10.30;99.90;;;;;;5052579;28;19924;-62
2023/01/12 09:08:34;;;;;;;;;;;10.30;99.90;;;;;;5053416;28;20413;-61
2023/01/12 09:11:01;;;;;;;;;;;10.30;99.90;;;;;;5053561;28;19929;-61
2023/01/12 09:13:26;;;;;;;;;;;10.40;99.90;;;;;;5052159;28;19921;-63
2023/01/12 09:15:52;;;;;;;;;;;10.30;99.90;;;;;;5052522;28;19928;-64
2023/01/12 09:18:17;;;;;;;;;;;10.40;99.90;;;;;;5053321;28;19974;-65
2023/01/12 09:20:43;;;;;;;;;;;10.40;99.90;;;;;;5035850;28;19920;-64
2023/01/12 09:23:09;;;;;;;;;;;10.40;99.90;;;;;;5052395;28;20405;-63
2023/01/12 09:25:34;;;;;;;;;;;10.40;99.90;;;;;;5053376;28;19977;-64
2023/01/12 09:28:00;;;;;;;;;;;10.50;99.90;;;;;;5052112;28;19921;-63
2023/01/12 09:30:25;;;;;;;;;;;10.50;99.90;;;;;;5052541;28;19920;-64
2023/01/12 09:32:52;;;;;;;;;;;10.60;99.90;;;;;;5035638;28;19989;-65
2023/01/12 09:35:18;;;;;;;;;;;10.60;99.90;;;;;;5053271;28;20061;-64
2023/01/12 09:37:45;;;;;;;;;;;10.50;99.90;;;;;;5051866;28;20007;-65
2023/01/12 09:40:13;;;;;;;;;;;10.60;99.90;;;;;;5052468;28;19921;-64
2023/01/12 09:48:08;;;;;;;;;;;10.50;99.90;;;;;;5052991;28;20333;-63
2023/01/12 09:50:45;;;;;;;;;;;10.50;99.90;;;;;;5051563;28;19921;-63
2023/01/12 09:53:20;;;;;;;;;;;10.50;99.90;;;;;;5053204;28;19974;-63
2023/01/12 09:55:54;;;;;;;;;;;10.50;99.90;;;;;;5050732;28;19920;-64
2023/01/12 09:58:34;;;;;;;;;;;10.50;99.90;;;;;;5052879;28;19921;-65
2023/01/12 10:01:01;;;;;;;;;;;10.50;99.90;;;;;;5052087;28;19963;-63
2023/01/12 10:03:37;;;;;;;;;;;10.60;99.90;;;;;;5052662;28;19920;-64
2023/01/12 10:06:03;;;;;;;;;;;10.70;99.90;;;;;;5051101;28;19925;-63
2023/01/12 10:08:32;;;;;;;;;;;10.70;99.90;;;;;;5052371;28;19928;-66
2023/01/12 10:11:16;;;;;;;;;;;10.60;99.90;;;;;;5051607;28;20064;-64
2023/01/12 10:13:51;;;;;;;;;;;10.60;99.90;;;;;;5034952;28;19921;-65
2023/01/12 10:16:24;;;;;;;;;;;10.60;99.90;;;;;;5051584;28;19920;-64
2023/01/12 10:18:55;;;;;;;;;;;10.50;99.90;;;;;;5052598;28;19983;-64
2023/01/12 10:21:22;;;;;;;;;;;10.50;99.90;;;;;;5051737;28;19959;-63
2023/01/12 10:23:48;;;;;;;;;;;10.50;99.90;;;;;;5052375;28;19924;-64
2023/01/12 10:26:21;;;;;;;;;;;10.50;99.90;;;;;;5051448;28;20286;-63
2023/01/12 10:28:48;;;;;;;;;;;10.50;99.90;;;;;;5051203;28;19927;-64
2023/01/12 10:31:16;;;;;;;;;;;10.60;99.90;;;;;;5052517;28;19920;-65
2023/01/12 10:33:59;;;;;;;;;;;10.60;99.90;;;;;;5051326;28;20038;-65
2023/01/12 10:36:25;;;;;;;;;;;10.50;99.90;;;;;;5034772;28;19921;-65
2023/01/12 10:38:56;;;;;;;;;;;10.60;99.90;;;;;;5050736;28;19927;-65
2023/01/12 10:41:23;;;;;;;;;;;10.50;99.90;;;;;;5051613;28;20394;-64
2023/01/12 10:43:57;;;;;;;;;;;10.50;99.90;;;;;;5052074;28;19974;-66
2023/01/12 10:46:25;;;;;;;;;;;10.50;99.90;;;;;;5033926;28;19924;-62
2023/01/12 10:48:52;;;;;;;;;;;10.50;99.90;;;;;;5051813;28;20365;-62
2023/01/12 10:51:17;;;;;;;;;;;10.50;99.90;;;;;;5051999;28;19920;-61
2023/01/12 10:53:45;;;;;;;;;;;10.60;99.90;;;;;;5051615;28;19944;-61
2023/01/12 10:56:13;;;;;;;;;;;10.60;99.90;;;;;;5050815;28;19925;-66
2023/01/12 10:58:39;;;;;;;;;;;10.70;99.90;;;;;;5051720;28;19932;-66
2023/01/12 11:01:05;;;;;;;;;;;10.70;99.90;;;;;;5051969;28;19921;-67
2023/01/12 11:03:39;;;;;;;;;;;10.70;99.90;;;;;;5051809;28;19968;-69
2023/01/12 11:06:16;;;;;;;;;;;10.70;99.90;;;;;;5034066;28;19920;-64
2023/01/12 11:08:42;;;;;;;;;;;10.80;99.90;;;;;;5055576;28;19921;-65
2023/01/12 11:11:34;;;;;;;;;;;10.60;99.90;;;;;;5055910;28;19921;-65
2023/01/12 11:14:01;;;;;;;;;;;10.70;99.90;;;;;;5052806;28;19975;-65
2023/01/12 11:16:29;;;;;;;;;;;10.60;99.90;;;;;;5056003;28;19921;-65
2023/01/12 11:19:02;;;;;;;;;;;10.70;99.90;;;;;;5054368;28;19921;-63
2023/01/12 11:21:30;;;;;;;;;;;10.80;99.90;;;;;;5055641;28;19927;-64
2023/01/12 11:23:59;;;;;;;;;;;10.70;99.90;;;;;;5055460;28;20053;-64
2023/01/12 11:26:44;;;;;;;;;;;10.80;99.90;;;;;;5055925;28;19967;-64
2023/01/12 11:29:30;;;;;;;;;;;10.90;99.90;;;;;;5055370;28;19986;-64
2023/01/12 11:31:59;;;;;;;;;;;10.90;99.90;;;;;;5054844;28;19921;-64
2023/01/12 11:34:28;;;;;;;;;;;10.90;99.90;;;;;;5038131;28;20004;-64
2023/01/12 11:37:00;;;;;;;;;;;11.00;99.90;;;;;;5055552;28;19920;-65
2023/01/12 11:39:27;;;;;;;;;;;11.00;99.90;;;;;;5038311;28;19916;-65
2023/01/12 11:44:52;;;;;;;;;;;11.00;99.90;;;;;;5055158;28;20060;-64
2023/01/12 11:47:27;;;;;;;;;;;11.10;99.90;;;;;;5055607;28;19920;-64
2023/01/12 11:49:57;;;;;;;;;;;11.10;99.90;;;;;;5037542;28;20298;-65
2023/01/12 11:52:23;;;;;;;;;;;11.20;99.90;;;;;;5054333;28;20362;-64
2023/01/12 11:54:49;;;;;;;;;;;11.20;99.90;;;;;;5055014;28;19921;-64
2023/01/12 11:57:35;;;;;;;;;;;11.20;99.90;;;;;;5055309;28;20282;-66
2023/01/12 12:00:39;;;;;;;;;;;11.20;99.90;;;;;;5013177;28;19927;-65
2023/01/12 12:03:11;;;;;;;;;;;11.30;99.90;;;;;;4993429;28;20306;-63
2023/01/12 12:05:55;;;;;;;;;;;11.30;99.90;;;;;;4993098;28;19961;-63
2023/01/12 12:08:47;;;;;;;;;;;11.40;99.90;;;;;;5031948;28;19921;-64
2023/01/12 12:11:15;;;;;;;;;;;11.30;99.90;;;;;;5053659;28;19927;-64
2023/01/12 12:13:52;;;;;;;;;;;11.40;99.90;;;;;;5053727;28;19924;-64
2023/01/12 12:16:36;;;;;;;;;;;11.40;99.90;;;;;;5055053;28;20367;-67
2023/01/12 12:19:14;;;;;;;;;;;11.40;99.90;;;;;;5052770;28;19924;-64
2023/01/12 12:21:45;;;;;;;;;;;11.40;99.90;;;;;;5055131;28;20258;-64
2023/01/12 12:24:10;;;;;;;;;;;11.40;99.90;;;;;;5053822;28;20378;-64
2023/01/12 12:26:43;;;;;;;;;;;11.40;99.90;;;;;;5054357;28;19963;-64
2023/01/12 12:29:24;;;;;;;;;;;11.40;99.90;;;;;;5054095;28;19921;-65
2023/01/12 12:32:00;;;;;;;;;;;11.40;99.90;;;;;;5053784;28;20366;-64
2023/01/12 12:34:40;;;;;;;;;;;11.40;99.90;;;;;;5054302;28;19943;-64
2023/01/12 12:37:14;;;;;;;;;;;11.40;99.90;;;;;;5053926;28;19921;-63
2023/01/12 12:39:56;;;;;;;;;;;11.40;99.90;;;;;;5053558;28;20338;-64
2023/01/12 12:45:28;;;;;;;;;;;11.40;99.90;;;;;;5054259;28;19967;-64
2023/01/12 12:48:02;;;;;;;;;;;11.40;99.90;;;;;;5053975;28;19990;-64
2023/01/12 12:50:29;;;;;;;;;;;11.40;99.90;;;;;;5053975;28;19924;-65
2023/01/12 12:53:09;;;;;;;;;;;11.30;99.90;;;;;;5052892;28;20297;-64
2023/01/12 12:55:36;;;;;;;;;;;11.20;99.90;;;;;;5053281;28;19976;-65
2023/01/12 12:58:20;;;;;;;;;;;11.10;99.90;;;;;;5053529;28;19931;-66
2023/01/12 13:00:45;;;;;;;;;;;11.10;99.90;;;;;;5053755;28;19920;-66
2023/01/12 13:03:31;;;;;;;;;;;11.10;99.90;;;;;;5052921;28;20441;-65
2023/01/12 13:06:23;;;;;;;;;;;11.10;99.90;;;;;;5053274;28;20261;-63
2023/01/12 13:08:50;;;;;;;;;;;11.10;99.90;;;;;;5029787;28;19920;-64
2023/01/12 13:11:17;;;;;;;;;;;11.10;99.90;;;;;;5052519;28;19928;-64
2023/01/12 13:14:02;;;;;;;;;;;11.10;99.90;;;;;;5053428;28;20412;-64
2023/01/12 13:16:28;;;;;;;;;;;11.10;99.90;;;;;;5053340;28;19921;-63
2023/01/12 13:18:54;;;;;;;;;;;11.10;99.90;;;;;;5052423;28;20270;-64
2023/01/12 13:21:25;;;;;;;;;;;11.10;99.90;;;;;;5053676;28;20281;-64
2023/01/12 13:23:52;;;;;;;;;;;11.10;99.90;;;;;;5053342;28;19932;-65
2023/01/12 13:26:33;;;;;;;;;;;11.10;99.90;;;;;;5053606;28;19928;-64
2023/01/12 13:29:17;;;;;;;;;;;11.10;99.90;;;;;;5053228;28;20278;-64
2023/01/12 13:31:43;;;;;;;;;;;11.20;99.90;;;;;;5053606;28;19971;-65
2023/01/12 13:34:28;;;;;;;;;;;11.20;99.90;;;;;;5051850;28;20286;-65
2023/01/12 13:37:06;;;;;;;;;;;11.20;99.90;;;;;;5051736;28;19917;-65
2023/01/12 13:39:34;;;;;;;;;;;11.20;99.90;;;;;;5051989;28;19924;-64
2023/01/12 13:44:45;;;;;;;;;;;11.20;99.90;;;;;;5053388;28;20364;-64
2023/01/12 13:47:22;;;;;;;;;;;11.20;99.90;;;;;;5035198;28;20011;-64
2023/01/12 13:49:52;;;;;;;;;;;11.20;99.90;;;;;;5053129;28;19943;-63
2023/01/12 13:52:28;;;;;;;;;;;11.20;99.90;;;;;;5052740;28;20362;-67
2023/01/12 13:54:54;;;;;;;;;;;11.20;99.90;;;;;;5051973;28;19920;-65
2023/01/12 13:57:21;;;;;;;;;;;11.20;99.90;;;;;;5051945;28;19974;-64
2023/01/12 14:00:10;;;;;;;;;;;11.20;99.90;;;;;;5053000;28;19927;-64
2023/01/12 14:02:36;;;;;;;;;;;11.20;99.90;;;;;;5053169;28;19927;-64
2023/01/12 14:05:11;;;;;;;;;;;11.20;99.90;;;;;;5051239;28;20362;-63
2023/01/12 14:07:57;;;;;;;;;;;11.20;99.90;;;;;;5052302;28;19944;-64
2023/01/12 14:10:49;;;;;;;;;;;11.20;99.90;;;;;;5052199;28;19916;-64
2023/01/12 14:13:26;;;;;;;;;;;11.20;99.90;;;;;;5048839;28;19921;-65
2023/01/12 14:18:46;;;;;;;;;;;11.20;99.90;;;;;;5052752;28;20200;-65
2023/01/12 14:21:21;;;;;;;;;;;11.10;99.90;;;;;;5051008;28;20354;-63
2023/01/12 14:23:47;;;;;;;;;;;11.20;99.90;;;;;;5052561;28;19970;-64
2023/01/12 14:26:15;;;;;;;;;;;11.20;99.90;;;;;;5052262;28;19963;-64
2023/01/12 14:28:41;;;;;;;;;;;11.20;99.90;;;;;;5052873;28;19974;-63
2023/01/12 14:31:14;;;;;;;;;;;11.20;99.90;;;;;;5052057;28;20341;-63
2023/01/12 14:33:39;;;;;;;;;;;11.10;99.90;;;;;;5052548;28;19927;-64
2023/01/12 14:36:11;;;;;;;;;;;11.20;99.90;;;;;;5050960;28;19920;-64
2023/01/12 14:38:39;;;;;;;;;;;11.10;99.90;;;;;;5052216;28;20447;-64
2023/01/12 14:46:23;;;;;;;;;;;11.10;99.90;;;;;;5050415;28;20007;-64
2023/01/12 14:46:43;;;;;;;;;;;11.10;99.90;;;;;;5052357;28;19982;-63
2023/01/12 14:49:19;;;;;;;;;;;11.10;99.90;;;;;;5051930;28;20435;-64
2023/01/12 14:51:55;;;;;;;;;;;11.00;99.90;;;;;;5052158;28;19927;-64
2023/01/12 14:54:38;;;;;;;;;;;11.00;99.90;;;;;;5050769;28;20091;-64
2023/01/12 14:57:17;;;;;;;;;;;11.00;99.90;;;;;;5034142;28;20020;-65
2023/01/12 14:59:44;;;;;;;;;;;11.00;99.90;;;;;;5034775;28;19927;-65
2023/01/12 15:02:23;;;;;;;;;;;10.90;99.90;;;;;;5052118;28;19921;-65
2023/01/12 15:04:50;;;;;;;;;;;11.00;99.90;;;;;;5052032;28;20281;-65
2023/01/12 15:07:17;;;;;;;;;;;10.80;99.90;;;;;;5051349;28;20378;-65
2023/01/12 15:10:04;;;;;;;;;;;10.80;99.90;;;;;;5050831;28;19971;-64
2023/01/12 15:12:29;;;;;;;;;;;10.80;99.90;;;;;;5051268;28;20262;-65
2023/01/12 15:25:34;;;;;;;;;;;10.70;99.90;;;;;;5052165;28;20007;-66
2023/01/12 15:26:26;;;;;;;;;;;10.70;99.90;;;;;;5050650;28;20011;-65
2023/01/12 15:28:51;;;;;;;;;;;10.70;99.90;;;;;;5051994;28;20374;-65